Time;durP1;ratioP1;P1;durP2;ratioP2;P2;SDS_P1;SDS_P2;PMS_P1;PMS_P2;Temp;Humidity;BMP_temperature;BMP_pressure;BME280_temperature;BME280_humidity;BME280_pressure;Samples;Min_cycle;Max_cycle;Signal;HPM_P1;HPM_P2
2022/01/21 07:14:45;;;;;;;8.15;3.35;;;4.40;84.40;;;;;;5425472;23;20321;-89
2022/01/21 07:17:11;;;;;;;6.22;3.55;;;4.40;84.50;;;;;;4980889;28;20198;-89
2022/01/21 07:19:36;;;;;;;10.23;3.93;;;4.50;84.50;;;;;;4994803;28;20276;-92
2022/01/21 07:22:03;;;;;;;11.17;4.60;;;4.50;84.20;;;;;;4998393;28;20178;-89
2022/01/21 07:24:28;;;;;;;13.43;3.78;;;4.50;84.10;;;;;;4988104;28;20278;-92
2022/01/21 07:26:55;;;;;;;9.40;3.40;;;4.50;84.20;;;;;;4998503;28;20269;-89
2022/01/21 07:29:21;;;;;;;7.70;3.58;;;4.40;84.10;;;;;;4997234;28;20647;-90
2022/01/21 07:31:46;;;;;;;20.33;7.05;;;4.40;84.20;;;;;;4997679;28;20245;-90
2022/01/21 07:34:12;;;;;;;19.70;3.47;;;4.40;84.30;;;;;;4996060;28;20226;-90
2022/01/21 07:36:38;;;;;;;17.27;5.05;;;4.40;84.30;;;;;;4996340;28;20186;-90
2022/01/21 07:39:05;;;;;;;11.37;4.30;;;4.40;84.40;;;;;;4996712;28;20207;-90
2022/01/21 07:41:31;;;;;;;8.50;4.05;;;4.40;84.50;;;;;;4996662;28;20206;-90
2022/01/21 07:43:56;;;;;;;9.97;4.30;;;4.40;84.50;;;;;;4997808;28;20203;-90
2022/01/21 07:46:22;;;;;;;8.50;3.80;;;4.40;84.60;;;;;;5018787;28;20194;-89
2022/01/21 07:48:48;;;;;;;7.90;3.53;;;4.50;84.60;;;;;;5001067;28;20262;-90
2022/01/21 07:51:14;;;;;;;15.30;4.10;;;4.40;84.50;;;;;;4997369;28;20423;-89
2022/01/21 07:53:39;;;;;;;12.63;4.37;;;4.40;85.30;;;;;;4996987;28;20446;-89
2022/01/21 07:56:05;;;;;;;8.43;3.60;;;4.40;84.70;;;;;;4999010;28;20282;-90
2022/01/21 07:58:31;;;;;;;11.20;4.23;;;4.50;84.90;;;;;;5012529;28;20218;-89
2022/01/21 08:00:57;;;;;;;8.83;3.80;;;4.50;85.00;;;;;;5012606;28;20237;-90
2022/01/21 08:03:24;;;;;;;18.20;4.00;;;4.70;85.10;;;;;;4996461;28;20423;-89
2022/01/21 08:05:51;;;;;;;13.48;4.80;;;4.70;85.10;;;;;;4995880;28;20437;-90
2022/01/21 08:08:17;;;;;;;18.17;5.75;;;4.80;85.00;;;;;;4995648;28;20286;-92
2022/01/21 08:10:42;;;;;;;7.60;3.80;;;4.90;85.00;;;;;;4996225;28;20191;-90
2022/01/21 08:13:08;;;;;;;13.23;5.63;;;4.90;84.80;;;;;;4997167;28;20552;-90
2022/01/21 08:15:34;;;;;;;9.77;5.37;;;4.90;84.70;;;;;;4980118;28;20223;-90
2022/01/21 08:18:00;;;;;;;15.20;4.88;;;4.80;84.40;;;;;;4977378;28;20563;-91
2022/01/21 08:20:28;;;;;;;8.02;4.78;;;4.90;84.30;;;;;;4978965;28;20196;-90
2022/01/21 08:22:54;;;;;;;11.15;4.03;;;5.00;84.10;;;;;;4976874;28;20263;-91
2022/01/21 08:25:19;;;;;;;13.47;4.37;;;5.10;83.70;;;;;;4995505;28;20228;-90
2022/01/21 08:27:45;;;;;;;14.43;4.40;;;5.30;83.30;;;;;;4981561;28;20924;-89
2022/01/21 08:30:12;;;;;;;16.17;4.13;;;5.40;82.70;;;;;;4976264;28;20459;-89
2022/01/21 08:32:38;;;;;;;12.82;3.63;;;5.40;82.30;;;;;;4975246;28;20263;-90
2022/01/21 08:35:06;;;;;;;16.97;4.17;;;5.40;82.10;;;;;;4975226;28;20301;-89
2022/01/21 08:37:32;;;;;;;14.25;3.25;;;5.30;82.00;;;;;;4976053;28;20239;-89
2022/01/21 08:39:57;;;;;;;13.57;3.90;;;5.20;82.10;;;;;;4975651;28;20400;-89
2022/01/21 08:42:29;;;;;;;14.73;3.90;;;5.10;82.20;;;;;;4994981;28;20194;-89
2022/01/21 08:45:01;;;;;;;10.70;3.97;;;5.10;82.40;;;;;;4997781;28;20258;-90
2022/01/21 08:47:33;;;;;;;12.27;3.55;;;5.10;82.70;;;;;;5000734;28;20214;-89
2022/01/21 08:50:10;;;;;;;7.50;4.07;;;5.00;82.60;;;;;;5002445;28;20214;-90
2022/01/21 08:52:45;;;;;;;15.70;4.25;;;5.00;82.90;;;;;;5001021;28;20266;-90
2022/01/21 08:55:17;;;;;;;9.18;3.65;;;5.00;83.20;;;;;;4998698;28;20225;-90
2022/01/21 08:57:47;;;;;;;6.32;4.60;;;5.10;83.20;;;;;;4999633;28;20214;-90
2022/01/21 09:00:17;;;;;;;9.15;3.15;;;5.10;83.20;;;;;;4998944;28;20214;-90
2022/01/21 09:02:44;;;;;;;20.95;3.50;;;5.10;83.20;;;;;;4996777;28;20190;-90
2022/01/21 09:05:10;;;;;;;9.35;4.07;;;5.10;83.20;;;;;;4994639;28;20207;-90
2022/01/21 09:07:36;;;;;;;12.73;4.38;;;5.10;83.20;;;;;;4995347;28;20222;-90
2022/01/21 09:10:04;;;;;;;10.98;3.92;;;5.10;83.00;;;;;;4997484;28;20179;-90
2022/01/21 09:12:30;;;;;;;9.82;3.47;;;5.10;83.00;;;;;;4999242;28;20183;-90
2022/01/21 09:14:55;;;;;;;10.63;3.60;;;5.20;82.90;;;;;;4986454;28;20211;-90
2022/01/21 09:17:21;;;;;;;10.80;2.80;;;5.40;82.90;;;;;;4976491;28;20473;-90
2022/01/21 09:19:47;;;;;;;10.20;4.43;;;5.40;82.70;;;;;;4974549;28;20247;-90
2022/01/21 09:22:13;;;;;;;10.00;3.90;;;5.40;82.50;;;;;;4987352;28;20771;-89
2022/01/21 09:24:39;;;;;;;11.03;3.20;;;5.50;82.30;;;;;;4993939;28;20199;-90
2022/01/21 09:27:05;;;;;;;16.80;3.28;;;5.50;82.20;;;;;;4993171;28;20270;-90
2022/01/21 09:29:32;;;;;;;11.48;4.30;;;5.60;81.80;;;;;;4993289;28;20258;-90
2022/01/21 09:31:58;;;;;;;9.40;3.50;;;5.60;81.60;;;;;;4992934;28;20193;-90
2022/01/21 09:34:25;;;;;;;10.35;2.88;;;5.40;81.50;;;;;;4992712;28;20258;-91
2022/01/21 09:36:53;;;;;;;11.35;3.45;;;5.50;81.60;;;;;;4993924;28;20179;-90
2022/01/21 09:39:19;;;;;;;11.27;3.70;;;5.70;81.50;;;;;;4992986;28;20203;-90
2022/01/21 09:41:46;;;;;;;11.60;3.70;;;5.60;81.10;;;;;;4992867;28;20203;-90
2022/01/21 09:44:18;;;;;;;12.27;3.70;;;5.80;81.20;;;;;;4992696;28;20309;-90
2022/01/21 09:46:47;;;;;;;13.48;3.80;;;5.90;81.00;;;;;;4992277;28;20602;-90
2022/01/21 09:49:46;;;;;;;10.52;4.18;;;6.00;80.90;;;;;;4993455;28;20187;-89
2022/01/21 09:52:08;;;;;;;13.48;4.10;;;6.00;80.60;;;;;;4992850;28;20192;-90
2022/01/21 09:54:37;;;;;;;7.22;2.63;;;6.10;81.20;;;;;;4992116;28;20207;-90
2022/01/21 09:57:05;;;;;;;7.85;2.58;;;6.30;80.30;;;;;;4992604;28;20179;-90
2022/01/21 09:59:34;;;;;;;10.90;3.17;;;6.50;80.30;;;;;;4992910;28;20200;-90
2022/01/21 10:02:03;;;;;;;9.98;2.97;;;6.60;80.10;;;;;;4992571;28;20179;-90
2022/01/21 10:04:35;;;;;;;7.43;3.70;;;6.80;79.90;;;;;;4992307;28;20218;-90
2022/01/21 10:07:02;;;;;;;8.10;4.32;;;6.90;79.40;;;;;;4994029;28;20233;-90
2022/01/21 10:09:28;;;;;;;4.40;2.20;;;7.00;79.00;;;;;;4992739;28;20214;-90
2022/01/21 10:11:56;;;;;;;12.30;3.50;;;7.30;78.70;;;;;;4977696;28;20195;-90
2022/01/21 10:14:24;;;;;;;10.55;3.90;;;7.20;77.80;;;;;;4972720;28;20474;-89
2022/01/21 10:16:51;;;;;;;6.93;3.13;;;7.40;77.50;;;;;;4973623;28;20229;-90
2022/01/21 10:19:24;;;;;;;12.73;2.72;;;7.50;76.80;;;;;;4985299;28;20191;-90
2022/01/21 10:21:58;;;;;;;15.18;3.13;;;7.40;76.30;;;;;;4995917;28;20190;-90
2022/01/21 10:24:24;;;;;;;13.93;2.75;;;7.40;76.10;;;;;;4992871;28;20194;-90
2022/01/21 10:26:52;;;;;;;15.10;2.40;;;7.50;76.20;;;;;;4993561;28;20187;-90
2022/01/21 10:29:19;;;;;;;17.65;2.90;;;7.60;75.90;;;;;;4993683;28;20191;-91
2022/01/21 10:31:57;;;;;;;15.00;2.95;;;7.60;75.70;;;;;;4994226;28;20305;-90
2022/01/21 10:34:41;;;;;;;7.88;2.90;;;7.60;75.50;;;;;;4992233;28;20222;-90
2022/01/21 10:37:27;;;;;;;5.25;2.47;;;7.80;75.60;;;;;;4996295;28;20183;-90
2022/01/21 10:43:17;;;;;;;15.63;3.50;;;8.00;75.10;;;;;;4997190;28;20290;-90
2022/01/21 10:45:57;;;;;;;19.20;3.03;;;7.90;74.80;;;;;;4996102;28;20198;-90
2022/01/21 10:48:25;;;;;;;6.47;2.08;;;8.10;74.70;;;;;;4996306;28;20241;-90
2022/01/21 10:51:16;;;;;;;6.10;2.40;;;8.20;74.50;;;;;;4998262;28;20186;-91
2022/01/21 10:53:45;;;;;;;8.30;2.72;;;8.20;74.20;;;;;;4996885;28;20257;-90
2022/01/21 10:56:16;;;;;;;17.88;2.55;;;8.30;74.40;;;;;;4996523;28;20186;-91
2022/01/21 10:58:51;;;;;;;11.90;2.65;;;8.40;74.10;;;;;;4996494;28;20203;-91
2022/01/21 11:01:22;;;;;;;12.27;2.22;;;8.30;74.10;;;;;;4997526;28;20221;-90
2022/01/21 11:04:11;;;;;;;9.98;3.05;;;8.30;74.10;;;;;;4997745;28;20206;-91
2022/01/21 11:06:57;;;;;;;13.93;3.20;;;8.40;73.80;;;;;;4997187;28;20194;-91
2022/01/21 11:09:30;;;;;;;7.93;2.75;;;8.50;74.00;;;;;;4997921;28;20171;-90
2022/01/21 11:12:15;;;;;;;13.05;2.08;;;8.50;73.70;;;;;;5007810;28;20171;-90
2022/01/21 11:15:03;;;;;;;9.23;2.25;;;8.50;74.00;;;;;;5014536;28;20215;-91
2022/01/21 11:17:29;;;;;;;14.55;2.33;;;8.60;73.70;;;;;;4996912;28;20182;-90
2022/01/21 11:20:18;;;;;;;11.07;2.38;;;8.70;73.40;;;;;;4999257;28;20710;-90
2022/01/21 11:22:53;;;;;;;10.15;2.42;;;8.70;73.30;;;;;;4999037;28;20182;-91
2022/01/21 11:25:39;;;;;;;8.02;2.40;;;8.70;73.00;;;;;;4996163;28;20298;-91
2022/01/21 11:28:06;;;;;;;14.98;3.20;;;8.60;73.10;;;;;;4995965;28;20242;-90
2022/01/21 11:30:32;;;;;;;8.70;2.35;;;8.70;73.20;;;;;;4998254;28;20702;-91
2022/01/21 11:32:58;;;;;;;12.50;2.28;;;8.50;73.20;;;;;;4997694;28;20182;-91
2022/01/21 11:35:26;;;;;;;11.57;5.07;;;8.50;73.40;;;;;;4997565;28;20203;-91
2022/01/21 11:37:52;;;;;;;9.35;2.03;;;8.20;73.60;;;;;;4998170;28;20175;-90
2022/01/21 11:40:19;;;;;;;16.33;2.73;;;8.00;74.30;;;;;;4999079;28;20570;-90
2022/01/21 11:42:47;;;;;;;19.50;2.50;;;8.10;74.70;;;;;;4998770;28;20417;-90
2022/01/21 11:46:04;;;;;;;9.93;2.70;;;7.90;74.80;;;;;;5002028;28;20195;-90
2022/01/21 11:50:43;;;;;;;13.00;2.80;;;8.20;75.60;;;;;;5002260;28;20167;-90
2022/01/21 11:53:09;;;;;;;8.18;2.60;;;8.10;75.60;;;;;;5005306;28;20180;-90
2022/01/21 11:58:37;;;;;;;9.05;3.33;;;8.00;76.60;;;;;;4999335;28;20254;-90
2022/01/21 12:01:06;;;;;;;15.73;3.37;;;7.80;77.70;;;;;;4996673;28;20175;-90
2022/01/21 12:03:55;;;;;;;13.27;3.75;;;7.70;78.70;;;;;;4999385;28;20187;-91
2022/01/21 12:06:35;;;;;;;10.93;3.50;;;7.80;79.30;;;;;;4991978;28;20182;-91
2022/01/21 12:09:08;;;;;;;21.73;2.85;;;7.80;79.70;;;;;;4997194;28;20282;-90
2022/01/21 12:11:42;;;;;;;9.68;2.53;;;7.60;80.10;;;;;;4997457;28;20670;-91
2022/01/21 12:19:20;;;;;;;5.35;2.50;;;7.90;81.00;;;;;;4996468;28;20215;-91
2022/01/21 12:21:48;;;;;;;5.22;2.85;;;7.70;81.00;;;;;;4981907;28;20179;-90
2022/01/21 12:24:16;;;;;;;7.28;2.88;;;7.60;81.50;;;;;;4982107;28;20199;-90
2022/01/21 12:27:01;;;;;;;8.38;3.20;;;7.50;82.00;;;;;;4983978;28;20266;-91
2022/01/21 12:29:28;;;;;;;13.45;3.25;;;7.70;82.20;;;;;;4983198;28;20183;-91
2022/01/21 12:32:12;;;;;;;11.07;3.58;;;7.50;82.30;;;;;;4985313;28;20183;-91
2022/01/21 12:34:57;;;;;;;9.18;2.65;;;7.40;82.40;;;;;;4984924;28;20201;-91
2022/01/21 12:37:26;;;;;;;17.05;4.15;;;7.50;83.00;;;;;;4982006;28;20187;-91
2022/01/21 12:39:52;;;;;;;10.32;2.80;;;7.50;83.00;;;;;;4982975;28;20215;-91
2022/01/21 12:42:21;;;;;;;8.70;3.90;;;7.60;82.80;;;;;;4984899;28;20175;-91
2022/01/21 12:44:48;;;;;;;8.38;2.75;;;7.70;82.70;;;;;;4981473;28;20450;-91
2022/01/21 12:47:48;;;;;;;7.18;2.80;;;7.90;82.60;;;;;;4999005;28;20214;-90
2022/01/21 12:50:47;;;;;;;7.93;2.72;;;7.90;82.20;;;;;;4951562;28;20218;-90
2022/01/21 12:53:22;;;;;;;6.97;2.25;;;7.70;82.10;;;;;;4985268;28;20176;-91
2022/01/21 12:56:03;;;;;;;6.20;2.10;;;7.50;82.40;;;;;;4980336;28;20214;-90
2022/01/21 12:58:39;;;;;;;5.10;2.22;;;7.40;82.70;;;;;;4996313;28;20293;-90
2022/01/21 13:01:09;;;;;;;5.93;2.97;;;7.40;82.90;;;;;;4979568;28;20221;-91
2022/01/21 13:03:42;;;;;;;6.75;2.05;;;7.40;82.70;;;;;;4978088;28;20207;-90
2022/01/21 13:06:19;;;;;;;8.18;2.50;;;7.30;83.10;;;;;;4978255;28;20632;-90
2022/01/21 13:09:06;;;;;;;7.82;3.45;;;7.30;83.40;;;;;;4995915;28;20385;-90
2022/01/21 13:11:33;;;;;;;4.93;2.50;;;7.40;83.50;;;;;;4978269;28;20176;-90
2022/01/21 13:14:02;;;;;;;6.80;3.17;;;7.40;83.40;;;;;;4978108;28;20294;-92
2022/01/21 13:16:32;;;;;;;20.83;3.08;;;7.30;84.20;;;;;;4996251;28;20190;-92
2022/01/21 13:19:00;;;;;;;5.38;2.50;;;7.40;83.20;;;;;;4977989;28;20698;-92
2022/01/21 13:21:26;;;;;;;19.33;3.95;;;7.40;82.90;;;;;;4983429;28;20257;-91
2022/01/21 13:23:59;;;;;;;6.93;2.80;;;7.40;82.80;;;;;;5008054;28;20718;-92
2022/01/21 13:26:27;;;;;;;8.63;3.05;;;7.30;82.90;;;;;;4979801;28;20179;-91
2022/01/21 13:28:59;;;;;;;7.88;3.13;;;7.40;83.00;;;;;;4987460;28;20634;-91
2022/01/21 13:31:27;;;;;;;10.52;3.42;;;7.40;83.00;;;;;;4993917;28;20191;-92
2022/01/21 13:34:05;;;;;;;16.30;3.33;;;7.50;83.00;;;;;;4995977;28;20253;-92
2022/01/21 13:36:46;;;;;;;13.75;4.00;;;7.50;83.00;;;;;;5002698;28;20174;-91
2022/01/21 13:39:34;;;;;;;12.82;3.53;;;7.60;82.90;;;;;;5018300;28;20190;-91
2022/01/21 13:42:15;;;;;;;8.65;3.20;;;7.60;83.00;;;;;;4996969;28;20183;-91
2022/01/21 13:44:44;;;;;;;16.80;3.50;;;7.70;83.10;;;;;;4996611;28;20198;-92
2022/01/21 13:47:28;;;;;;;18.25;3.72;;;7.90;83.30;;;;;;4989988;28;20242;-92
2022/01/21 13:50:08;;;;;;;21.48;4.28;;;8.00;82.90;;;;;;4993864;28;20210;-91
2022/01/21 13:52:39;;;;;;;21.65;3.53;;;8.10;82.60;;;;;;4994567;28;20182;-90
2022/01/21 13:55:07;;;;;;;15.20;4.03;;;8.00;82.30;;;;;;4993797;28;20209;-92
2022/01/21 13:57:33;;;;;;;13.98;3.78;;;7.80;82.60;;;;;;4995441;28;20183;-92
2022/01/21 13:59:59;;;;;;;17.67;3.73;;;7.60;83.20;;;;;;5015530;28;20206;-92
2022/01/21 14:02:26;;;;;;;17.03;4.13;;;7.50;83.50;;;;;;5002164;28;20437;-92
2022/01/21 14:05:07;;;;;;;13.48;2.50;;;7.40;83.70;;;;;;4993725;28;20596;-92
2022/01/21 14:07:34;;;;;;;16.25;4.00;;;7.30;83.60;;;;;;4994931;28;20164;-91
2022/01/21 14:10:06;;;;;;;17.10;2.90;;;7.20;83.20;;;;;;4997028;28;20186;-91
2022/01/21 14:12:33;;;;;;;10.32;2.58;;;7.10;82.90;;;;;;4996493;28;20174;-91
2022/01/21 14:14:59;;;;;;;4.82;3.03;;;7.10;82.70;;;;;;4980957;28;20214;-91
2022/01/21 14:17:26;;;;;;;22.42;3.47;;;7.10;82.70;;;;;;5009242;28;20261;-92
2022/01/21 14:19:54;;;;;;;19.10;3.08;;;7.10;82.80;;;;;;4996848;28;20255;-92
2022/01/21 14:22:23;;;;;;;10.93;2.60;;;7.20;82.90;;;;;;4996247;28;20206;-92
2022/01/21 14:24:51;;;;;;;8.13;2.03;;;7.10;82.60;;;;;;4983317;28;20225;-91
2022/01/21 14:27:30;;;;;;;10.05;2.95;;;7.10;82.70;;;;;;4976759;28;20651;-91
2022/01/21 14:30:00;;;;;;;11.60;3.45;;;7.10;82.50;;;;;;4978011;28;20230;-92
2022/01/21 14:32:33;;;;;;;18.23;2.85;;;7.10;82.70;;;;;;4977294;28;20222;-92
2022/01/21 14:35:30;;;;;;;12.55;3.05;;;7.20;82.60;;;;;;4994554;28;20253;-89
2022/01/21 14:38:06;;;;;;;13.68;3.30;;;7.20;82.60;;;;;;4976835;28;20180;-92
2022/01/21 14:40:38;;;;;;;9.88;2.42;;;7.40;82.00;;;;;;4977444;28;20290;-90
2022/01/21 14:43:08;;;;;;;6.78;2.22;;;7.40;81.60;;;;;;4976527;28;20581;-91
2022/01/21 14:45:52;;;;;;;6.32;2.15;;;7.40;81.20;;;;;;4976621;28;20189;-90
2022/01/21 14:48:23;;;;;;;10.70;2.28;;;7.30;80.80;;;;;;4976578;28;20168;-90
2022/01/21 14:50:50;;;;;;;7.32;2.22;;;7.10;80.20;;;;;;4976656;28;20168;-90
2022/01/21 14:53:17;;;;;;;14.13;2.75;;;7.20;80.40;;;;;;4978355;28;20724;-91
2022/01/21 14:55:45;;;;;;;9.95;3.05;;;7.20;80.20;;;;;;4994801;28;20182;-90
2022/01/21 14:58:24;;;;;;;12.13;3.40;;;7.20;80.00;;;;;;4977508;28;20184;-92
2022/01/21 15:01:00;;;;;;;10.00;2.40;;;7.20;79.80;;;;;;4978520;28;20177;-91
2022/01/21 15:03:39;;;;;;;14.40;3.05;;;7.20;79.80;;;;;;4978273;28;20171;-91
2022/01/21 15:06:14;;;;;;;11.75;3.72;;;7.10;80.10;;;;;;4977375;28;20164;-88
2022/01/21 15:08:51;;;;;;;8.95;2.60;;;7.20;80.30;;;;;;4994060;28;20167;-88
2022/01/21 15:11:43;;;;;;;11.45;2.30;;;7.20;80.30;;;;;;4976901;28;20163;-91
2022/01/21 15:14:27;;;;;;;7.18;3.28;;;7.20;80.10;;;;;;4999724;28;20690;-89
2022/01/21 15:17:03;;;;;;;9.00;2.45;;;7.30;79.80;;;;;;5003595;28;20278;-89
2022/01/21 15:19:36;;;;;;;17.85;3.35;;;7.30;79.50;;;;;;5002348;28;20205;-88
2022/01/21 15:22:04;;;;;;;6.00;2.10;;;7.10;79.40;;;;;;4999251;28;20190;-90
2022/01/21 15:24:29;;;;;;;9.48;3.17;;;7.20;79.50;;;;;;5001601;28;20212;-90
2022/01/21 15:26:55;;;;;;;4.27;2.73;;;7.20;79.50;;;;;;4989222;28;20358;-89
2022/01/21 15:29:21;;;;;;;5.40;2.40;;;7.30;79.50;;;;;;4980199;28;20194;-90
2022/01/21 15:31:47;;;;;;;9.40;2.58;;;7.30;79.00;;;;;;4979613;28;20517;-90
2022/01/21 15:34:13;;;;;;;6.25;1.83;;;7.30;78.60;;;;;;4979331;28;20199;-88
2022/01/21 15:36:39;;;;;;;5.10;1.80;;;7.20;78.10;;;;;;4979753;28;20499;-89
2022/01/21 15:39:06;;;;;;;14.23;2.10;;;7.20;77.90;;;;;;4980211;28;20462;-88
2022/01/21 15:41:32;;;;;;;10.52;2.20;;;7.10;77.70;;;;;;4979868;28;20418;-88
2022/01/21 15:43:59;;;;;;;7.72;2.35;;;7.10;77.60;;;;;;4979195;28;20204;-89
2022/01/21 15:46:28;;;;;;;7.47;2.33;;;7.10;77.50;;;;;;4979517;28;20215;-86
2022/01/21 15:48:54;;;;;;;5.57;2.05;;;7.10;77.60;;;;;;4979960;28;20179;-86
2022/01/21 15:51:20;;;;;;;13.33;2.77;;;7.10;77.10;;;;;;4980471;28;20190;-90
2022/01/21 15:53:50;;;;;;;7.53;2.90;;;7.00;76.60;;;;;;4979543;28;20454;-88
2022/01/21 15:56:15;;;;;;;5.90;2.00;;;7.00;76.30;;;;;;4984886;28;20423;-89
2022/01/21 15:58:41;;;;;;;7.57;2.50;;;7.20;76.10;;;;;;4980596;28;20719;-89
2022/01/21 16:01:07;;;;;;;5.97;1.88;;;7.30;75.70;;;;;;4980155;28;20178;-90
2022/01/21 16:03:40;;;;;;;12.20;2.08;;;7.40;75.50;;;;;;4981067;28;20179;-89
2022/01/21 16:06:07;;;;;;;7.10;1.90;;;7.30;75.30;;;;;;4987291;28;20258;-90
2022/01/21 16:08:32;;;;;;;4.72;1.73;;;7.30;75.50;;;;;;4985881;28;20187;-89
2022/01/21 16:10:58;;;;;;;7.20;2.50;;;7.30;75.50;;;;;;4986538;28;20291;-90
2022/01/21 16:13:24;;;;;;;5.30;2.17;;;7.30;75.50;;;;;;4984171;28;20245;-90
2022/01/21 16:15:50;;;;;;;11.02;2.70;;;7.40;75.40;;;;;;5016781;28;20452;-91
2022/01/21 16:18:16;;;;;;;9.33;2.20;;;7.30;75.20;;;;;;5000645;28;20207;-91
2022/01/21 16:20:46;;;;;;;8.52;2.20;;;7.40;75.20;;;;;;4984437;28;20419;-91
2022/01/21 16:23:16;;;;;;;20.25;3.20;;;7.30;75.20;;;;;;4986578;28;20183;-91
2022/01/21 16:25:43;;;;;;;4.65;2.13;;;7.30;75.30;;;;;;4980083;28;20183;-90
2022/01/21 16:28:09;;;;;;;10.75;2.10;;;7.30;75.40;;;;;;4980654;28;20176;-91
2022/01/21 16:30:35;;;;;;;12.90;2.70;;;7.30;75.40;;;;;;4980023;28;20183;-91
2022/01/21 16:33:04;;;;;;;7.40;2.70;;;7.30;75.60;;;;;;4978806;28;20245;-91
2022/01/21 16:35:30;;;;;;;3.65;1.70;;;7.20;75.80;;;;;;4978590;28;20257;-91
2022/01/21 16:37:56;;;;;;;17.75;2.90;;;7.20;75.80;;;;;;4978299;28;20191;-90
2022/01/21 16:40:22;;;;;;;7.40;2.50;;;7.20;76.00;;;;;;4978449;28;20203;-90
2022/01/21 16:42:48;;;;;;;8.10;2.00;;;7.20;76.00;;;;;;4983172;28;20170;-91
2022/01/21 16:45:15;;;;;;;14.43;4.53;;;7.10;75.90;;;;;;4995871;28;20199;-92
2022/01/21 16:47:46;;;;;;;6.15;2.30;;;7.00;75.90;;;;;;4984994;28;20651;-90
2022/01/21 16:50:13;;;;;;;10.25;3.53;;;6.90;76.10;;;;;;4980093;28;20255;-91
2022/01/21 16:52:42;;;;;;;5.60;2.28;;;6.70;76.30;;;;;;4980851;28;20183;-90
2022/01/21 16:55:09;;;;;;;10.57;2.42;;;6.80;76.40;;;;;;4982860;28;20291;-91
2022/01/21 16:57:36;;;;;;;4.32;2.25;;;6.70;76.70;;;;;;4980017;28;20545;-90
2022/01/21 17:00:10;;;;;;;6.38;2.40;;;6.60;76.90;;;;;;4979045;28;20203;-90
2022/01/21 17:02:35;;;;;;;6.00;2.20;;;6.70;77.00;;;;;;4978482;28;20175;-91
2022/01/21 17:05:07;;;;;;;12.40;2.63;;;6.60;76.90;;;;;;4980271;28;20568;-91
2022/01/21 17:07:32;;;;;;;10.82;2.15;;;6.70;77.10;;;;;;4980349;28;20179;-91
2022/01/21 17:09:58;;;;;;;7.63;2.80;;;6.60;76.80;;;;;;4997395;28;20552;-90
2022/01/21 17:12:24;;;;;;;11.13;2.37;;;6.60;76.70;;;;;;4980042;28;20179;-88
2022/01/21 17:14:50;;;;;;;6.27;2.87;;;6.50;76.40;;;;;;4979378;28;20690;-90
2022/01/21 17:17:18;;;;;;;17.07;2.90;;;6.50;76.10;;;;;;4980542;28;20199;-88
2022/01/21 17:19:45;;;;;;;8.18;2.50;;;6.40;76.10;;;;;;4981626;28;20454;-93
2022/01/21 17:22:12;;;;;;;10.48;2.50;;;6.40;76.00;;;;;;4983987;28;20266;-92
2022/01/21 17:24:40;;;;;;;11.38;3.10;;;6.40;75.90;;;;;;4982815;28;20223;-92
2022/01/21 17:27:11;;;;;;;13.43;3.22;;;6.40;75.80;;;;;;4997442;28;20186;-92
2022/01/21 17:29:38;;;;;;;8.43;3.05;;;6.40;75.80;;;;;;4967798;28;20186;-92
2022/01/21 17:32:05;;;;;;;5.05;2.88;;;6.30;75.80;;;;;;4982343;28;20191;-93
2022/01/21 17:34:30;;;;;;;8.15;2.88;;;6.20;75.90;;;;;;4980394;28;20554;-93
2022/01/21 17:36:56;;;;;;;6.10;2.90;;;6.10;76.00;;;;;;4980212;28;20242;-92
2022/01/21 17:39:22;;;;;;;9.05;3.13;;;6.00;76.10;;;;;;4982520;28;20529;-92
2022/01/21 17:41:48;;;;;;;14.87;3.57;;;6.10;76.40;;;;;;4984617;28;20187;-92
2022/01/21 17:44:18;;;;;;;9.50;2.93;;;6.10;76.40;;;;;;4990994;28;20525;-93
2022/01/21 17:46:45;;;;;;;11.60;2.72;;;6.20;76.40;;;;;;4989180;28;20435;-93
2022/01/21 17:49:13;;;;;;;11.85;2.97;;;6.20;76.20;;;;;;4983497;28;20259;-94
2022/01/21 17:51:42;;;;;;;7.07;3.33;;;6.10;76.20;;;;;;4983770;28;20182;-92
2022/01/21 17:54:08;;;;;;;13.30;3.17;;;6.20;76.50;;;;;;4981495;28;20202;-87
2022/01/21 17:56:34;;;;;;;6.70;2.60;;;6.00;76.70;;;;;;4995895;28;20179;-89
2022/01/21 17:59:00;;;;;;;10.93;2.97;;;6.00;76.80;;;;;;4978715;28;20220;-89
2022/01/21 18:01:26;;;;;;;12.07;3.40;;;6.00;76.80;;;;;;4978707;28;20365;-90
2022/01/21 18:03:56;;;;;;;8.20;2.95;;;5.90;77.10;;;;;;4977120;28;20289;-89
2022/01/21 18:06:23;;;;;;;13.15;4.38;;;5.90;77.20;;;;;;4976488;28;20258;-87
2022/01/21 18:09:00;;;;;;;9.88;3.08;;;5.80;77.30;;;;;;4977270;28;20191;-87
2022/01/21 18:11:28;;;;;;;12.82;4.03;;;5.80;77.60;;;;;;4976530;28;20202;-87
2022/01/21 18:13:54;;;;;;;12.02;3.90;;;5.90;77.80;;;;;;4998453;28;20198;-91
2022/01/21 18:16:20;;;;;;;8.65;3.30;;;5.80;78.00;;;;;;5020280;28;20183;-88
2022/01/21 18:18:47;;;;;;;12.05;4.15;;;5.70;78.30;;;;;;5018212;28;20214;-88
2022/01/21 18:21:14;;;;;;;11.05;3.85;;;5.70;78.70;;;;;;5016765;28;20175;-88
2022/01/21 18:23:40;;;;;;;12.20;4.60;;;5.70;78.80;;;;;;4996224;28;20209;-87
2022/01/21 18:26:06;;;;;;;9.53;3.57;;;5.70;79.00;;;;;;4997177;28;20174;-88
2022/01/21 18:28:32;;;;;;;20.83;4.23;;;5.70;79.10;;;;;;5015828;28;20412;-87
2022/01/21 18:30:59;;;;;;;11.25;3.75;;;5.70;79.40;;;;;;4992882;28;20416;-87
2022/01/21 18:33:28;;;;;;;10.20;4.45;;;5.60;79.50;;;;;;4974626;28;20246;-88
2022/01/21 18:35:56;;;;;;;13.45;4.13;;;5.60;79.90;;;;;;4973913;28;20172;-88
2022/01/21 18:38:22;;;;;;;31.88;5.53;;;5.60;79.80;;;;;;4973687;28;20183;-88
2022/01/21 18:40:50;;;;;;;15.30;4.20;;;5.60;80.10;;;;;;4974243;28;20318;-87
2022/01/21 18:43:24;;;;;;;19.00;4.47;;;5.60;80.30;;;;;;4973402;28;20430;-88
2022/01/21 18:45:55;;;;;;;16.30;4.40;;;5.60;80.40;;;;;;4973660;28;20175;-88
2022/01/21 18:48:22;;;;;;;8.20;4.25;;;5.70;80.40;;;;;;4973707;28;20183;-88
2022/01/21 18:50:51;;;;;;;7.22;6.20;;;5.80;80.40;;;;;;4974588;28;20176;-88
2022/01/21 18:53:16;;;;;;;7.90;3.85;;;5.80;80.20;;;;;;4976589;28;20270;-88
2022/01/21 18:55:42;;;;;;;12.30;4.77;;;5.90;80.10;;;;;;4976724;28;20269;-88
2022/01/21 18:58:08;;;;;;;15.67;5.03;;;5.90;80.00;;;;;;4980826;28;20415;-88
2022/01/21 19:00:34;;;;;;;13.33;4.30;;;5.90;80.00;;;;;;4979721;28;20671;-88
2022/01/21 19:03:00;;;;;;;12.57;4.70;;;6.00;79.80;;;;;;4979998;28;20175;-88
2022/01/21 19:05:28;;;;;;;7.93;4.60;;;6.00;79.60;;;;;;4999692;28;20541;-87
2022/01/21 19:07:55;;;;;;;15.95;4.53;;;6.10;79.50;;;;;;4986946;28;20533;-87
2022/01/21 19:10:26;;;;;;;8.13;3.83;;;6.10;79.20;;;;;;4992015;28;20209;-88
2022/01/21 19:12:52;;;;;;;14.23;3.92;;;6.00;79.10;;;;;;4989112;28;20182;-87
2022/01/21 19:15:19;;;;;;;19.35;5.13;;;6.10;79.20;;;;;;5006599;28;20202;-87
2022/01/21 19:17:45;;;;;;;9.13;4.03;;;6.10;79.10;;;;;;5020175;28;20195;-88
2022/01/21 19:20:18;;;;;;;21.67;4.80;;;6.10;79.30;;;;;;5006676;28;20214;-88
2022/01/21 19:22:51;;;;;;;9.18;4.93;;;6.00;79.10;;;;;;5007896;28;20186;-87
2022/01/21 19:25:34;;;;;;;15.68;5.00;;;6.00;79.20;;;;;;4997208;28;20201;-88
2022/01/21 19:28:00;;;;;;;10.02;4.45;;;5.90;79.30;;;;;;5000327;28;20271;-86
2022/01/21 19:30:26;;;;;;;10.60;5.20;;;5.90;79.70;;;;;;5011001;28;20195;-88
2022/01/21 19:32:52;;;;;;;17.40;6.38;;;5.90;79.70;;;;;;5010902;28;20772;-88
2022/01/21 19:35:19;;;;;;;16.73;4.93;;;5.90;80.00;;;;;;5001600;28;20202;-88
2022/01/21 19:37:46;;;;;;;12.10;5.38;;;5.90;80.10;;;;;;5001485;28;20417;-89
2022/01/21 19:40:12;;;;;;;10.60;5.10;;;5.90;80.20;;;;;;5000836;28;20203;-88
2022/01/21 19:42:39;;;;;;;10.90;4.95;;;5.90;80.20;;;;;;4987253;28;20191;-86
2022/01/21 19:45:12;;;;;;;20.20;7.00;;;6.00;80.20;;;;;;4994769;28;20211;-86
2022/01/21 19:48:02;;;;;;;9.93;5.63;;;5.90;80.30;;;;;;5004345;28;20174;-88
2022/01/21 19:50:30;;;;;;;13.43;5.63;;;6.00;80.30;;;;;;5039561;28;20210;-88
2022/01/21 19:52:59;;;;;;;10.00;5.72;;;6.00;80.30;;;;;;5008876;28;20269;-89
2022/01/21 19:55:27;;;;;;;14.38;6.25;;;6.00;80.40;;;;;;4995467;28;20241;-89
2022/01/21 20:08:57;;;;;;;9.77;5.40;;;6.10;80.90;;;;;;4999352;28;20174;-89
2022/01/21 20:14:09;;;;;;;12.52;6.63;;;6.20;80.60;;;;;;5014098;28;20187;-89
2022/01/21 20:16:35;;;;;;;12.27;5.57;;;6.20;80.50;;;;;;5000426;28;20190;-89
2022/01/21 20:19:03;;;;;;;19.98;7.38;;;6.20;80.40;;;;;;4999253;28;20253;-90
2022/01/21 20:21:32;;;;;;;26.35;8.50;;;6.20;80.30;;;;;;5000491;28;20674;-89
2022/01/21 20:23:59;;;;;;;17.25;7.53;;;6.30;80.40;;;;;;4998849;28;20237;-90
2022/01/21 20:26:27;;;;;;;13.88;6.80;;;6.30;80.30;;;;;;4999349;28;20179;-90
2022/01/21 20:28:53;;;;;;;10.32;6.72;;;6.30;80.30;;;;;;4998842;28;20213;-89
2022/01/21 20:31:20;;;;;;;9.57;6.47;;;6.30;80.30;;;;;;4995171;28;20266;-89
2022/01/21 20:33:49;;;;;;;20.63;9.30;;;6.40;80.20;;;;;;4999765;28;20277;-89
2022/01/21 20:36:35;;;;;;;32.40;9.35;;;6.50;80.10;;;;;;4998915;28;20189;-90
2022/01/21 20:39:08;;;;;;;11.52;7.50;;;6.50;79.80;;;;;;4982609;28;20694;-90
2022/01/21 20:44:11;;;;;;;14.15;7.07;;;6.50;79.80;;;;;;5008703;28;20195;-89
2022/01/21 20:46:37;;;;;;;10.60;6.93;;;6.50;79.70;;;;;;4996617;28;20175;-90
2022/01/21 20:49:04;;;;;;;17.45;6.72;;;6.50;79.60;;;;;;4997759;28;20180;-90